Time;durP1;ratioP1;P1;durP2;ratioP2;P2;SDS_P1;SDS_P2;PMS_P1;PMS_P2;Temp;Humidity;BMP_temperature;BMP_pressure;BME280_temperature;BME280_humidity;BME280_pressure;Samples;Min_cycle;Max_cycle;Signal;HPM_P1;HPM_P2
2021/05/12 00:00:29;;;;;;;0.62;0.30;;;;;;;14.26;53.13;99773.06;1743675;80;21146;-50
2021/05/12 00:02:55;;;;;;;2.75;0.40;;;;;;;14.23;53.20;99765.13;1742569;80;21078;-50
2021/05/12 00:05:23;;;;;;;0.68;0.25;;;;;;;14.21;53.45;99777.88;1745076;80;21419;-52
2021/05/12 00:07:50;;;;;;;0.42;0.30;;;;;;;14.21;53.39;99780.59;1742818;80;21431;-50
2021/05/12 00:10:17;;;;;;;0.82;0.30;;;;;;;14.20;53.47;99788.34;1742331;80;21537;-51
2021/05/12 00:12:43;;;;;;;3.02;0.30;;;;;;;14.17;53.52;99795.30;1742091;80;21040;-51
2021/05/12 00:15:13;;;;;;;2.02;0.30;;;;;;;14.16;53.75;99798.48;1741763;80;21066;-51
2021/05/12 00:17:41;;;;;;;1.17;0.30;;;;;;;14.13;53.66;99802.72;1743290;80;21805;-50
2021/05/12 00:20:09;;;;;;;1.70;0.25;;;;;;;14.13;53.78;99803.20;1742069;80;22455;-51
2021/05/12 00:25:04;;;;;;;3.20;0.30;;;;;;;14.04;53.38;99804.64;1748544;80;21059;-50
2021/05/12 00:27:30;;;;;;;0.20;0.20;;;;;;;13.98;53.28;99803.20;1744457;80;21378;-52
2021/05/12 00:29:57;;;;;;;0.85;0.30;;;;;;;13.92;52.98;99798.65;1743734;80;21040;-52
2021/05/12 00:32:23;;;;;;;0.30;0.28;;;;;;;13.85;53.13;99802.70;1744231;80;21138;-50
2021/05/12 00:34:49;;;;;;;1.15;0.20;;;;;;;13.77;53.03;99800.94;1743682;80;22173;-51
2021/05/12 00:37:15;;;;;;;0.80;0.20;;;;;;;13.68;52.81;99798.78;1745233;80;21089;-52
2021/05/12 00:39:41;;;;;;;2.15;0.20;;;;;;;13.58;52.85;99799.34;1743636;80;21111;-53
2021/05/12 00:42:08;;;;;;;0.72;0.30;;;;;;;13.51;52.71;99802.02;1742808;80;21118;-52
2021/05/12 00:44:34;;;;;;;0.45;0.15;;;;;;;13.45;52.74;99796.95;1743807;80;21007;-52
2021/05/12 00:47:04;;;;;;;0.82;0.20;;;;;;;13.39;52.73;99795.97;1743270;80;21084;-51
2021/05/12 00:49:32;;;;;;;0.40;0.20;;;;;;;13.35;52.78;99799.84;1742764;80;21923;-51
2021/05/12 00:51:59;;;;;;;0.33;0.20;;;;;;;13.29;52.91;99800.66;1744662;80;21079;-50
2021/05/12 00:54:25;;;;;;;1.40;0.20;;;;;;;13.24;53.03;99807.69;1743361;80;22090;-50
2021/05/12 00:56:51;;;;;;;1.42;0.23;;;;;;;13.19;53.07;99799.83;1744350;80;21061;-50
2021/05/12 00:59:18;;;;;;;3.30;0.20;;;;;;;13.13;53.10;99797.49;1735570;80;21142;-52
2021/05/12 01:01:44;;;;;;;0.93;0.20;;;;;;;13.05;53.18;99792.11;1711965;80;21579;-50
2021/05/12 01:04:10;;;;;;;0.78;0.20;;;;;;;12.96;53.37;99789.45;1735817;80;21157;-49
2021/05/12 01:06:38;;;;;;;0.50;0.20;;;;;;;12.92;53.61;99788.38;1735059;80;21148;-49
2021/05/12 01:09:06;;;;;;;3.20;0.30;;;;;;;12.87;53.70;99782.75;1735566;80;21597;-50
2021/05/12 01:11:33;;;;;;;0.30;0.20;;;;;;;12.83;53.87;99790.66;1737177;80;20996;-51
2021/05/12 01:13:59;;;;;;;0.40;0.25;;;;;;;12.80;54.07;99794.87;1736672;80;21543;-51
2021/05/12 01:16:25;;;;;;;0.20;0.20;;;;;;;12.75;54.03;99789.34;1737694;80;21453;-52
2021/05/12 01:18:51;;;;;;;1.05;0.15;;;;;;;12.70;54.13;99792.77;1732712;80;21152;-53
2021/05/12 01:21:17;;;;;;;0.40;0.20;;;;;;;12.65;54.24;99798.44;1736744;80;21081;-51
2021/05/12 01:23:46;;;;;;;0.40;0.20;;;;;;;12.59;54.18;99792.52;1735741;80;21607;-53
2021/05/12 01:26:19;;;;;;;0.30;0.20;;;;;;;12.52;54.03;99786.55;1739389;80;20941;-53
2021/05/12 01:28:48;;;;;;;0.50;0.20;;;;;;;12.44;53.84;99776.19;1735949;80;20944;-53
2021/05/12 01:31:23;;;;;;;1.03;0.20;;;;;;;12.38;53.77;99768.44;1735104;80;21113;-54
2021/05/12 01:33:51;;;;;;;0.20;0.20;;;;;;;12.29;53.54;99777.52;1736919;80;21095;-53
2021/05/12 01:36:17;;;;;;;1.65;0.30;;;;;;;12.22;53.78;99779.69;1733635;80;21084;-54
2021/05/12 01:38:45;;;;;;;1.37;0.20;;;;;;;12.17;53.78;99785.79;1736844;80;21012;-53
2021/05/12 01:41:11;;;;;;;0.20;0.20;;;;;;;12.12;53.80;99789.23;1710172;80;21143;-52
2021/05/12 01:43:37;;;;;;;0.40;0.20;;;;;;;12.06;53.82;99782.82;1736611;80;21107;-52
2021/05/12 01:46:04;;;;;;;0.13;0.13;;;;;;;11.98;53.78;99776.48;1735992;80;21669;-52
2021/05/12 01:48:31;;;;;;;0.40;0.30;;;;;;;11.94;53.91;99786.16;1735472;80;21143;-52
2021/05/12 01:50:57;;;;;;;0.20;0.20;;;;;;;11.89;53.86;99793.64;1734746;80;21142;-53
2021/05/12 01:53:23;;;;;;;0.47;0.30;;;;;;;11.84;53.94;99791.16;1734767;80;21136;-53
2021/05/12 01:55:51;;;;;;;0.33;0.30;;;;;;;11.77;53.87;99792.45;1738380;80;21696;-52
2021/05/12 01:58:18;;;;;;;0.30;0.20;;;;;;;11.69;53.95;99798.69;1751102;80;21118;-53
2021/05/12 02:00:46;;;;;;;0.20;0.20;;;;;;;11.62;53.99;99792.75;1737137;80;21545;-54
2021/05/12 02:03:13;;;;;;;0.20;0.20;;;;;;;11.57;54.10;99801.53;1739824;80;20965;-53
2021/05/12 02:05:41;;;;;;;1.67;0.30;;;;;;;11.50;54.24;99805.97;1752236;79;20932;-52
2021/05/12 02:08:09;;;;;;;0.73;0.20;;;;;;;11.41;54.53;99811.34;1738034;80;21088;-51
2021/05/12 02:10:36;;;;;;;4.23;0.17;;;;;;;11.35;54.78;99810.32;1737675;80;20901;-54
2021/05/12 02:13:02;;;;;;;0.47;0.30;;;;;;;11.30;54.96;99813.27;1738281;80;21400;-51
2021/05/12 02:15:28;;;;;;;0.30;0.30;;;;;;;11.25;54.96;99816.64;1738196;80;21000;-51
2021/05/12 02:17:54;;;;;;;0.30;0.20;;;;;;;11.19;55.18;99819.66;1750038;79;20918;-50
2021/05/12 02:20:32;;;;;;;0.20;0.20;;;;;;;11.14;55.36;99823.06;1737569;80;20986;-52
2021/05/12 02:22:57;;;;;;;0.60;0.30;;;;;;;11.12;55.67;99822.26;1736979;80;21562;-52
2021/05/12 02:25:24;;;;;;;0.40;0.30;;;;;;;11.10;55.80;99825.49;1736968;80;21050;-52
2021/05/12 02:27:50;;;;;;;0.50;0.30;;;;;;;11.08;55.80;99825.16;1734925;80;21151;-53
2021/05/12 02:30:16;;;;;;;0.40;0.30;;;;;;;11.05;55.88;99824.86;1733709;80;21079;-52
2021/05/12 02:32:43;;;;;;;0.30;0.20;;;;;;;10.99;56.05;99819.75;1735268;80;22040;-52
2021/05/12 02:35:09;;;;;;;0.50;0.30;;;;;;;10.93;56.15;99823.63;1734393;80;21155;-52
2021/05/12 02:37:36;;;;;;;0.20;0.20;;;;;;;10.87;56.26;99824.41;1737953;80;21032;-54
2021/05/12 02:40:05;;;;;;;1.17;0.30;;;;;;;10.82;56.46;99831.80;1680319;83;21530;-53
2021/05/12 02:42:31;;;;;;;3.50;0.30;;;;;;;10.80;56.60;99835.07;1736041;80;21464;-53
2021/05/12 02:44:57;;;;;;;2.63;0.20;;;;;;;10.75;56.70;99831.23;1737084;80;21710;-52
2021/05/12 02:47:24;;;;;;;0.90;0.23;;;;;;;10.72;56.80;99834.56;1701601;82;21135;-53
2021/05/12 02:49:50;;;;;;;3.53;0.50;;;;;;;10.68;56.93;99823.53;1736306;80;21131;-52
2021/05/12 02:52:17;;;;;;;0.47;0.20;;;;;;;10.66;57.00;99822.72;1699820;82;22491;-52
2021/05/12 02:54:43;;;;;;;0.20;0.20;;;;;;;10.65;57.13;99824.53;1735582;80;21727;-53
2021/05/12 02:57:09;;;;;;;1.07;0.20;;;;;;;10.65;57.13;99824.53;1735507;80;22159;-53
2021/05/12 02:59:36;;;;;;;0.40;0.30;;;;;;;10.63;57.14;99817.87;1735335;80;21139;-53
2021/05/12 03:02:02;;;;;;;0.20;0.20;;;;;;;10.63;57.28;99818.84;1737508;80;21097;-53
2021/05/12 03:04:28;;;;;;;2.77;0.30;;;;;;;10.59;57.29;99832.44;1737400;80;21143;-53
2021/05/12 03:06:56;;;;;;;2.30;0.20;;;;;;;10.56;57.43;99835.27;1735018;80;21651;-52
2021/05/12 03:09:25;;;;;;;0.30;0.20;;;;;;;10.56;57.48;99828.53;1739333;80;21073;-52
2021/05/12 03:11:52;;;;;;;0.70;0.20;;;;;;;10.55;57.56;99826.78;1737817;80;20964;-52
2021/05/12 03:14:18;;;;;;;0.77;0.27;;;;;;;10.57;57.67;99830.75;1737535;80;21081;-53
2021/05/12 03:16:44;;;;;;;0.30;0.20;;;;;;;10.54;57.72;99822.38;1735641;80;21210;-52
2021/05/12 03:19:10;;;;;;;1.30;0.20;;;;;;;10.50;57.85;99831.98;1734975;80;22405;-53
2021/05/12 03:21:37;;;;;;;0.20;0.20;;;;;;;10.47;57.92;99826.73;1733758;80;22015;-52
2021/05/12 03:24:04;;;;;;;0.43;0.30;;;;;;;10.47;57.99;99826.73;1737425;80;21021;-52
2021/05/12 03:26:31;;;;;;;1.90;0.23;;;;;;;10.47;58.07;99826.73;1734176;80;21574;-52
2021/05/12 03:28:57;;;;;;;0.47;0.20;;;;;;;10.48;58.21;99821.77;1736298;80;21008;-52
2021/05/12 03:31:23;;;;;;;0.73;0.20;;;;;;;10.47;58.11;99820.89;1733407;80;21083;-53
2021/05/12 03:33:52;;;;;;;0.20;0.20;;;;;;;10.46;58.19;99823.17;1737724;80;21135;-53
2021/05/12 03:36:17;;;;;;;0.60;0.20;;;;;;;10.45;58.20;99824.62;1735780;80;21179;-53
2021/05/12 03:38:43;;;;;;;0.13;0.10;;;;;;;10.45;58.31;99824.62;1737490;80;21055;-53
2021/05/12 03:41:09;;;;;;;0.10;0.10;;;;;;;10.42;58.25;99821.59;1733968;80;21625;-52
2021/05/12 03:43:36;;;;;;;0.30;0.10;;;;;;;10.42;58.31;99831.00;1736598;80;21180;-53
2021/05/12 03:46:02;;;;;;;1.43;0.13;;;;;;;10.44;58.33;99825.09;1737123;80;21520;-52
2021/05/12 03:48:29;;;;;;;1.60;0.20;;;;;;;10.45;58.31;99816.55;1738144;80;22002;-52
2021/05/12 03:50:55;;;;;;;2.13;0.20;;;;;;;10.48;58.40;99824.45;1735292;80;21084;-51
2021/05/12 03:53:21;;;;;;;0.20;0.20;;;;;;;10.52;58.24;99830.98;1737072;80;21131;-53
2021/05/12 03:55:47;;;;;;;0.87;0.10;;;;;;;10.57;58.31;99815.48;1733889;80;21150;-52
2021/05/12 03:58:13;;;;;;;0.10;0.10;;;;;;;10.65;58.32;99825.87;1735162;80;21546;-52
2021/05/12 04:00:39;;;;;;;0.20;0.10;;;;;;;10.69;58.24;99825.28;1747751;80;22126;-52
2021/05/12 04:03:06;;;;;;;0.17;0.10;;;;;;;10.76;58.25;99822.22;1726955;81;21527;-53
2021/05/12 04:05:32;;;;;;;0.20;0.20;;;;;;;10.86;57.98;99815.92;1727423;81;21174;-53
2021/05/12 04:07:58;;;;;;;0.20;0.10;;;;;;;10.95;57.78;99807.39;1728206;81;21119;-51
2021/05/12 04:10:24;;;;;;;0.10;0.10;;;;;;;11.09;57.42;99812.97;1725148;81;21522;-53
2021/05/12 04:12:50;;;;;;;1.57;0.10;;;;;;;11.31;57.12;99808.24;1727494;81;21557;-52
2021/05/12 04:15:17;;;;;;;0.30;0.13;;;;;;;11.67;56.75;99804.63;1728835;81;21420;-54
2021/05/12 04:17:43;;;;;;;0.20;0.10;;;;;;;12.03;55.39;99798.69;1725982;81;21011;-53
2021/05/12 04:20:12;;;;;;;4.03;0.20;;;;;;;12.39;54.64;99822.83;1748254;80;21116;-53
2021/05/12 04:22:39;;;;;;;1.90;0.10;;;;;;;12.61;53.84;99809.48;1730443;81;21803;-52
2021/05/12 04:25:07;;;;;;;2.67;0.10;;;;;;;12.71;53.15;99815.64;1750523;80;21508;-53
2021/05/12 04:27:33;;;;;;;0.10;0.10;;;;;;;12.83;53.03;99810.03;1730244;81;21580;-52
2021/05/12 04:30:00;;;;;;;0.40;0.10;;;;;;;12.94;52.60;99809.41;1725302;81;21136;-52
2021/05/12 04:32:26;;;;;;;1.23;0.10;;;;;;;12.93;52.53;99809.04;1729426;81;21107;-53
2021/05/12 04:34:52;;;;;;;0.20;0.10;;;;;;;12.92;52.49;99818.97;1727111;81;21202;-52
2021/05/12 04:37:18;;;;;;;0.20;0.10;;;;;;;12.91;52.31;99812.30;1748023;80;21072;-52
2021/05/12 04:39:44;;;;;;;0.10;0.10;;;;;;;12.83;52.23;99813.61;1726373;81;21079;-54
2021/05/12 04:42:10;;;;;;;0.10;0.10;;;;;;;12.76;52.40;99810.84;1728482;81;21131;-53
2021/05/12 04:44:36;;;;;;;1.37;0.10;;;;;;;12.69;52.55;99813.97;1729119;81;21124;-50
2021/05/12 04:47:02;;;;;;;0.73;0.10;;;;;;;12.63;52.81;99810.27;1726364;81;21916;-52
2021/05/12 04:49:29;;;;;;;0.03;0.00;;;;;;;12.62;53.37;99802.64;1728256;81;21128;-52
2021/05/12 04:51:55;;;;;;;0.20;0.10;;;;;;;12.63;53.52;99805.74;1727339;81;21159;-51
2021/05/12 04:54:22;;;;;;;0.10;0.10;;;;;;;12.66;53.37;99810.11;1726297;81;22192;-52
2021/05/12 04:56:49;;;;;;;0.20;0.10;;;;;;;12.69;53.45;99805.87;1728226;81;22755;-54
2021/05/12 04:59:15;;;;;;;0.10;0.10;;;;;;;12.72;53.78;99807.06;1731006;80;21130;-54
2021/05/12 05:01:41;;;;;;;0.23;0.10;;;;;;;12.77;53.50;99810.36;1737517;80;21641;-54
2021/05/12 05:04:07;;;;;;;0.10;0.10;;;;;;;12.77;53.00;99813.06;1738835;80;21552;-52
2021/05/12 05:09:08;;;;;;;0.23;0.10;;;;;;;12.69;53.16;99797.29;1868657;74;22663;-51
2021/05/12 05:11:34;;;;;;;0.10;0.10;;;;;;;12.66;53.13;99808.77;1835224;77;20991;-50
2021/05/12 05:14:01;;;;;;;0.47;0.10;;;;;;;12.69;53.32;99811.27;1837732;76;21135;-53
2021/05/12 05:16:27;;;;;;;0.20;0.10;;;;;;;12.76;53.50;99817.59;1834094;75;21018;-51
2021/05/12 05:18:54;;;;;;;1.85;0.10;;;;;;;12.80;53.52;99811.55;1844143;76;20947;-50
2021/05/12 05:21:20;;;;;;;0.80;0.10;;;;;;;12.86;53.81;99816.59;1837487;75;21442;-52
2021/05/12 05:23:46;;;;;;;0.30;0.10;;;;;;;12.92;53.52;99814.05;1837796;75;21582;-51
2021/05/12 05:26:12;;;;;;;0.30;0.17;;;;;;;12.99;53.38;99816.31;1831905;75;21484;-53
2021/05/12 05:28:38;;;;;;;0.10;0.10;;;;;;;13.05;52.99;99808.32;1830386;75;20991;-51
2021/05/12 05:31:04;;;;;;;0.35;0.10;;;;;;;13.08;53.16;99802.28;1835990;75;21528;-52
2021/05/12 05:33:49;;;;;;;0.20;0.10;;;;;;;13.14;53.34;99803.77;1833268;75;21590;-51
2021/05/12 05:36:34;;;;;;;0.40;0.10;;;;;;;13.20;52.85;99816.92;1839340;75;21106;-51
2021/05/12 05:39:18;;;;;;;0.85;0.20;;;;;;;13.22;52.87;99810.48;1830213;75;21122;-51
2021/05/12 05:42:06;;;;;;;0.30;0.10;;;;;;;13.26;52.71;99807.12;1828666;75;21086;-53
2021/05/12 05:44:50;;;;;;;2.42;0.20;;;;;;;13.27;52.68;99805.30;1823481;76;21071;-51
2021/05/12 05:47:35;;;;;;;0.70;0.20;;;;;;;13.30;52.35;99805.97;1771893;79;21060;-52
2021/05/12 05:50:21;;;;;;;0.45;0.20;;;;;;;13.29;52.29;99800.66;1761404;80;21103;-52
2021/05/12 05:53:05;;;;;;;1.85;0.20;;;;;;;13.25;52.41;99807.61;1762128;79;21027;-52
2021/05/12 05:55:50;;;;;;;0.80;0.20;;;;;;;13.29;52.45;99797.95;1757893;80;21007;-52
2021/05/12 05:58:24;;;;;;;0.20;0.10;;;;;;;13.31;52.48;99800.96;1767046;78;21560;-51
2021/05/12 06:01:08;;;;;;;3.00;0.10;;;;;;;13.34;52.51;99799.92;1773332;79;21034;-52
2021/05/12 06:03:34;;;;;;;0.50;0.20;;;;;;;13.32;52.47;99800.00;1764856;79;21158;-53
2021/05/12 06:06:19;;;;;;;0.20;0.10;;;;;;;13.31;52.77;99805.49;1767859;79;21518;-55
2021/05/12 06:09:03;;;;;;;0.80;0.15;;;;;;;13.37;52.58;99814.59;1693994;81;21113;-52
2021/05/12 06:11:48;;;;;;;1.82;0.20;;;;;;;13.35;52.15;99793.08;1736177;79;21138;-52
2021/05/12 06:14:32;;;;;;;0.50;0.20;;;;;;;13.35;52.20;99798.96;1760108;79;21473;-52
2021/05/12 06:17:17;;;;;;;3.40;0.20;;;;;;;13.36;52.55;99797.49;1750385;79;21376;-53
2021/05/12 06:20:01;;;;;;;1.65;0.10;;;;;;;13.44;52.82;99803.31;1747890;79;21172;-53
2021/05/12 06:22:46;;;;;;;0.25;0.15;;;;;;;13.57;52.07;99796.72;1756789;79;21048;-51
2021/05/12 06:25:31;;;;;;;1.60;0.13;;;;;;;13.57;51.49;99794.02;1750324;79;21142;-54
2021/05/12 06:28:16;;;;;;;0.40;0.20;;;;;;;13.50;51.08;99794.87;1752225;79;21174;-53
2021/05/12 06:31:02;;;;;;;2.47;0.20;;;;;;;13.57;51.08;99796.72;1674343;84;21159;-52
2021/05/12 06:33:47;;;;;;;2.50;0.30;;;;;;;13.68;51.32;99796.08;1677971;84;22132;-50
2021/05/12 06:36:32;;;;;;;2.35;0.20;;;;;;;13.82;50.63;99797.45;1720546;79;21149;-51
2021/05/12 06:39:18;;;;;;;3.05;0.30;;;;;;;13.95;50.93;99782.23;1675531;83;21226;-50
2021/05/12 06:41:45;;;;;;;1.05;0.20;;;;;;;14.05;49.57;99791.50;1674971;83;21897;-50
2021/05/12 06:44:11;;;;;;;1.02;0.25;;;;;;;14.09;49.57;99794.42;1700538;79;21146;-52
2021/05/12 06:46:37;;;;;;;0.60;0.30;;;;;;;14.14;49.30;99790.06;1760287;79;21493;-50
2021/05/12 06:49:03;;;;;;;0.57;0.10;;;;;;;14.21;49.34;99790.93;1749348;80;21134;-51
2021/05/12 06:51:29;;;;;;;0.15;0.10;;;;;;;14.29;48.94;99787.26;1752945;80;21106;-48
2021/05/12 06:53:55;;;;;;;0.50;0.20;;;;;;;14.37;48.78;99772.75;1751485;79;21584;-53
2021/05/12 06:56:22;;;;;;;3.42;0.20;;;;;;;14.47;48.53;99777.14;1731310;80;21087;-51
2021/05/12 06:58:48;;;;;;;0.20;0.10;;;;;;;14.52;47.90;99776.38;1741976;80;21114;-52
2021/05/12 07:01:14;;;;;;;0.50;0.40;;;;;;;14.54;47.83;99779.00;1738190;80;21076;-51
2021/05/12 07:03:40;;;;;;;2.30;0.40;;;;;;;14.56;47.92;99783.81;1759964;79;22615;-52
2021/05/12 07:06:06;;;;;;;2.52;0.20;;;;;;;14.56;47.56;99783.33;1755352;80;21126;-52
2021/05/12 07:08:37;;;;;;;1.17;0.20;;;;;;;14.51;47.53;99779.18;1753998;79;21082;-51
2021/05/12 07:11:04;;;;;;;1.67;0.10;;;;;;;14.46;47.77;99775.91;1745162;80;21226;-53
2021/05/12 07:13:30;;;;;;;0.70;0.10;;;;;;;14.47;47.95;99773.56;1747182;80;20934;-54
2021/05/12 07:15:57;;;;;;;0.60;0.10;;;;;;;14.53;47.96;99774.55;1750567;80;21571;-52
2021/05/12 07:18:23;;;;;;;0.20;0.10;;;;;;;14.62;47.99;99779.37;1745369;79;21184;-53
2021/05/12 07:20:49;;;;;;;0.20;0.10;;;;;;;14.68;47.72;99784.39;1740436;80;21086;-53
2021/05/12 07:23:24;;;;;;;1.10;0.10;;;;;;;14.74;46.62;99778.56;1753951;79;21248;-52
2021/05/12 07:25:47;;;;;;;1.47;0.10;;;;;;;14.64;46.49;99770.64;1723301;80;20919;-52
2021/05/12 07:28:14;;;;;;;0.10;0.10;;;;;;;14.58;46.43;99781.39;1766088;79;21441;-52
2021/05/12 07:30:41;;;;;;;0.10;0.10;;;;;;;14.53;46.37;99779.96;1767790;79;20979;-52
2021/05/12 07:33:08;;;;;;;0.10;0.10;;;;;;;14.47;46.58;99775.78;1736975;80;21073;-53
2021/05/12 07:35:34;;;;;;;0.20;0.08;;;;;;;14.49;47.15;99772.98;1777681;79;21101;-52
2021/05/12 07:38:01;;;;;;;0.10;0.00;;;;;;;14.50;46.80;99767.48;1779718;78;21127;-51
2021/05/12 07:40:31;;;;;;;0.17;0.08;;;;;;;14.50;46.51;99774.73;1767780;78;21649;-51
2021/05/12 07:42:55;;;;;;;4.85;0.00;;;;;;;14.46;46.42;99774.55;1774524;79;21083;-50
2021/05/12 07:45:22;;;;;;;6.30;0.00;;;;;;;14.45;46.12;99773.69;1683649;80;21004;-52
2021/05/12 07:47:48;;;;;;;0.55;0.00;;;;;;;14.48;45.91;99771.24;1734948;80;21133;-51
2021/05/12 07:50:15;;;;;;;1.00;0.20;;;;;;;14.48;45.78;99780.23;1742312;80;21515;-51
2021/05/12 07:52:41;;;;;;;0.20;0.10;;;;;;;14.47;45.49;99773.56;1759667;80;21077;-51
2021/05/12 07:55:08;;;;;;;8.33;0.42;;;;;;;14.41;45.44;99778.02;1747134;80;20914;-51
2021/05/12 07:57:34;;;;;;;0.30;0.10;;;;;;;14.36;45.38;99772.87;1746910;80;21314;-51
2021/05/12 08:00:03;;;;;;;2.67;0.10;;;;;;;14.34;45.20;99777.03;1750475;80;21027;-53
2021/05/12 08:02:30;;;;;;;1.62;0.10;;;;;;;14.26;45.53;99777.12;1748658;80;21432;-53
2021/05/12 08:04:56;;;;;;;2.40;0.08;;;;;;;14.19;45.71;99779.84;1750119;79;20930;-52
2021/05/12 08:07:23;;;;;;;3.70;0.10;;;;;;;14.14;45.67;99777.88;1728514;81;20978;-51
2021/05/12 08:09:49;;;;;;;2.92;0.10;;;;;;;14.04;46.26;99787.05;1765638;79;20968;-52
2021/05/12 08:12:15;;;;;;;1.07;0.10;;;;;;;13.98;46.16;99776.61;1773310;79;20940;-53
2021/05/12 08:14:42;;;;;;;3.55;0.10;;;;;;;13.93;46.25;99778.74;1772959;79;20900;-52
2021/05/12 08:17:08;;;;;;;0.88;0.00;;;;;;;13.89;46.39;99777.17;1772798;79;20964;-52
2021/05/12 08:19:34;;;;;;;4.20;0.10;;;;;;;13.88;46.94;99786.25;1760221;80;20991;-51
2021/05/12 08:22:06;;;;;;;0.23;0.00;;;;;;;13.88;47.32;99776.78;1761700;80;20936;-53
2021/05/12 08:24:33;;;;;;;3.42;0.10;;;;;;;13.88;47.38;99779.48;1759089;80;21107;-51
2021/05/12 08:27:01;;;;;;;2.10;0.10;;;;;;;13.88;48.17;99774.95;1788299;78;21486;-53
2021/05/12 08:29:29;;;;;;;3.12;0.10;;;;;;;13.90;47.89;99772.16;1794025;78;20916;-52
2021/05/12 08:31:56;;;;;;;0.45;0.10;;;;;;;13.95;48.01;99774.11;1791256;78;21433;-53
2021/05/12 08:34:22;;;;;;;0.10;0.00;;;;;;;14.00;48.35;99762.52;1787108;78;21082;-52
2021/05/12 08:36:49;;;;;;;0.13;0.10;;;;;;;14.07;48.45;99766.57;1783685;78;21740;-51
2021/05/12 08:39:15;;;;;;;1.27;0.10;;;;;;;14.13;48.19;99754.00;1790253;78;21130;-53
2021/05/12 08:41:41;;;;;;;1.47;0.10;;;;;;;14.21;48.29;99758.45;1785765;78;21488;-51
2021/05/12 08:44:08;;;;;;;0.40;0.05;;;;;;;14.22;47.90;99754.78;1744896;80;21087;-52
2021/05/12 08:46:34;;;;;;;0.08;0.08;;;;;;;14.18;47.53;99755.95;1738801;79;21500;-51
2021/05/12 08:49:01;;;;;;;1.20;0.10;;;;;;;14.14;47.80;99750.33;1762202;80;21201;-52
2021/05/12 08:51:27;;;;;;;0.70;0.10;;;;;;;14.13;47.62;99750.42;1765003;79;21147;-52
2021/05/12 08:53:56;;;;;;;2.20;0.10;;;;;;;14.10;47.33;99754.21;1771632;79;21608;-51
2021/05/12 08:56:22;;;;;;;0.20;0.03;;;;;;;14.10;47.02;99739.33;1758824;80;20971;-51
2021/05/12 08:58:49;;;;;;;3.90;0.20;;;;;;;14.15;47.44;99733.13;1756370;80;21123;-52
2021/05/12 09:01:16;;;;;;;0.53;0.10;;;;;;;14.21;47.56;99737.27;1756300;80;21738;-52
2021/05/12 09:03:46;;;;;;;0.00;0.00;;;;;;;14.27;47.54;99735.07;1790650;78;21111;-51
2021/05/12 09:06:12;;;;;;;3.25;0.20;;;;;;;14.32;47.27;99730.22;1787288;78;21137;-52
2021/05/12 09:08:39;;;;;;;0.10;0.00;;;;;;;14.35;47.00;99745.41;1787900;78;21131;-52
2021/05/12 09:11:05;;;;;;;3.62;0.13;;;;;;;14.26;46.95;99728.39;1788678;78;21099;-52
2021/05/12 09:13:43;;;;;;;0.30;0.10;;;;;;;14.08;47.86;99739.89;1788737;78;21211;-50
2021/05/12 09:16:26;;;;;;;1.75;0.10;;;;;;;14.01;48.23;99743.95;1748580;80;20975;-52
2021/05/12 09:19:07;;;;;;;1.30;0.10;;;;;;;14.03;47.73;99742.03;1773602;80;21102;-53
2021/05/12 09:21:57;;;;;;;4.90;0.10;;;;;;;14.12;48.06;99730.59;1769160;78;22018;-51
2021/05/12 09:24:34;;;;;;;1.37;0.00;;;;;;;14.21;47.56;99718.32;1762323;80;21645;-52
2021/05/12 09:27:09;;;;;;;0.23;0.10;;;;;;;14.31;47.21;99725.77;1770297;80;21275;-53
2021/05/12 09:29:40;;;;;;;0.20;0.10;;;;;;;14.41;47.03;99718.44;1743332;80;21534;-53
2021/05/12 09:32:10;;;;;;;1.55;0.10;;;;;;;14.51;47.04;99719.11;1767716;80;20928;-55
2021/05/12 09:35:03;;;;;;;0.53;0.10;;;;;;;14.59;46.71;99718.13;1769478;80;21042;-49
2021/05/12 09:37:38;;;;;;;0.62;0.00;;;;;;;14.67;46.69;99711.72;1769134;80;21549;-53
2021/05/12 09:40:15;;;;;;;0.23;0.10;;;;;;;14.75;46.80;99703.95;1745189;80;21079;-52
2021/05/12 09:42:42;;;;;;;4.37;0.10;;;;;;;14.76;45.82;99701.64;1772097;78;21035;-51
2021/05/12 09:45:20;;;;;;;1.98;0.00;;;;;;;14.73;45.51;99697.77;1759474;80;21086;-54
2021/05/12 09:47:58;;;;;;;0.30;0.00;;;;;;;14.68;46.00;99690.92;1759304;80;21171;-54
2021/05/12 09:50:34;;;;;;;0.10;0.10;;;;;;;14.62;46.08;99696.27;1757946;80;21566;-50
2021/05/12 09:53:08;;;;;;;1.82;0.10;;;;;;;14.52;46.00;99688.84;1773189;80;21581;-52
2021/05/12 09:55:37;;;;;;;;;;;;;;;14.42;46.64;99695.81;1774834;79;20923;-54
2021/05/12 09:58:08;;;;;;;0.33;0.10;;;;;;;14.41;46.59;99703.06;1761010;79;21027;-53
2021/05/12 10:00:42;;;;;;;0.10;0.10;;;;;;;14.46;46.60;99696.02;1758711;79;21582;-52
2021/05/12 10:03:10;;;;;;;0.17;0.10;;;;;;;14.53;46.22;99696.00;1763966;79;21650;-52
2021/05/12 10:06:00;;;;;;;0.82;0.00;;;;;;;14.48;46.46;99695.41;1771779;80;21156;-52
2021/05/12 10:08:35;;;;;;;0.20;0.00;;;;;;;14.51;46.37;99690.67;1771208;80;21726;-54
2021/05/12 10:11:06;;;;;;;0.10;0.10;;;;;;;14.62;46.89;99683.20;1744131;80;21561;-53
2021/05/12 10:15:00;;;;;;;0.20;0.10;;;;;;;14.81;46.38;99676.93;1753152;78;23312;-51
2021/05/12 10:17:27;;;;;;;2.10;0.10;;;;;;;14.83;45.88;99675.48;1726739;80;21070;-54
2021/05/12 10:19:55;;;;;;;4.45;0.10;;;;;;;14.85;45.66;99682.55;1729394;80;21945;-55
2021/05/12 10:22:21;;;;;;;0.78;0.03;;;;;;;14.85;45.62;99687.96;1722294;80;21061;-54
2021/05/12 10:24:50;;;;;;;0.50;0.10;;;;;;;14.85;45.94;99685.25;1721287;80;21138;-54
2021/05/12 10:27:27;;;;;;;0.85;0.10;;;;;;;14.87;45.82;99682.45;1723787;80;21012;-54
2021/05/12 10:29:57;;;;;;;1.30;0.20;;;;;;;14.91;46.40;99682.61;1727605;80;21035;-52
2021/05/12 10:32:27;;;;;;;0.70;0.15;;;;;;;14.89;46.13;99682.70;1723086;80;22226;-53
2021/05/12 10:35:08;;;;;;;1.90;0.10;;;;;;;14.89;46.08;99683.19;1724274;80;20940;-54
2021/05/12 10:37:46;;;;;;;1.07;0.08;;;;;;;14.92;45.96;99679.80;1736863;80;21008;-53
2021/05/12 10:40:20;;;;;;;5.22;0.10;;;;;;;14.96;45.83;99678.64;1725453;80;21431;-53
2021/05/12 10:43:03;;;;;;;0.20;0.10;;;;;;;15.03;46.19;99685.86;1707920;82;21017;-53
2021/05/12 10:45:59;;;;;;;0.05;0.00;;;;;;;15.06;45.74;99686.50;1680720;83;21837;-53
2021/05/12 10:48:39;;;;;;;2.22;0.10;;;;;;;15.01;45.78;99682.38;1702955;82;20897;-54
2021/05/12 10:51:27;;;;;;;3.52;0.40;;;;;;;14.97;45.42;99676.80;1700800;82;20932;-54
2021/05/12 10:54:02;;;;;;;1.40;0.00;;;;;;;14.96;45.59;99673.22;1702869;82;21501;-51
2021/05/12 10:56:39;;;;;;;0.55;0.10;;;;;;;15.01;45.51;99675.60;1682040;82;20975;-53
2021/05/12 10:59:10;;;;;;;0.00;0.00;;;;;;;15.00;45.26;99680.16;1703920;82;21522;-51
2021/05/12 11:01:49;;;;;;;2.55;0.10;;;;;;;14.99;45.12;99672.12;1706819;82;20917;-52
2021/05/12 11:04:18;;;;;;;1.22;0.10;;;;;;;14.97;45.27;99672.22;1701747;82;20916;-54
2021/05/12 11:06:53;;;;;;;0.68;0.08;;;;;;;14.95;45.09;99666.53;1702972;82;21008;-53
2021/05/12 11:09:22;;;;;;;0.30;0.10;;;;;;;14.99;45.21;99675.70;1699665;82;21272;-52
2021/05/12 11:11:58;;;;;;;0.53;0.10;;;;;;;15.07;44.76;99668.40;1675658;83;21085;-52
2021/05/12 11:14:38;;;;;;;8.88;0.20;;;;;;;15.15;44.69;99675.52;1658658;84;21557;-54
2021/05/12 11:17:11;;;;;;;1.27;0.20;;;;;;;15.22;44.78;99664.67;1653849;84;20931;-53
2021/05/12 11:19:51;;;;;;;6.78;0.20;;;;;;;15.32;44.53;99658.09;1660591;84;20980;-52
2021/05/12 11:33:32;;;;;;;1.15;0.00;;;;;;;15.79;43.84;99627.67;1696323;82;21166;-53
2021/05/12 11:36:16;;;;;;;0.62;0.10;;;;;;;15.91;44.00;99621.87;1697176;82;21083;-52
2021/05/12 11:38:41;;;;;;;0.23;0.10;;;;;;;16.04;43.55;99618.63;1691910;82;21886;-53
2021/05/12 11:41:20;;;;;;;0.60;0.03;;;;;;;16.09;43.07;99618.66;1691684;82;21155;-54
2021/05/12 11:44:02;;;;;;;0.40;0.00;;;;;;;16.10;42.71;99622.25;1696705;82;21127;-53
2021/05/12 11:46:40;;;;;;;0.20;0.08;;;;;;;16.06;42.92;99619.39;1658367;84;21750;-52
2021/05/12 11:49:14;;;;;;;0.15;0.10;;;;;;;16.01;43.23;99619.71;1650810;84;21114;-53
2021/05/12 11:51:52;;;;;;;1.60;0.08;;;;;;;15.98;43.25;99623.16;1657229;84;21152;-55
2021/05/12 11:54:23;;;;;;;1.40;0.10;;;;;;;15.88;43.21;99624.30;1692128;82;21112;-53
2021/05/12 11:56:57;;;;;;;0.45;0.20;;;;;;;15.70;43.63;99622.41;1667195;84;21346;-52
2021/05/12 11:59:25;;;;;;;0.80;0.10;;;;;;;15.59;43.88;99612.80;1634339;85;21040;-54
2021/05/12 12:02:07;;;;;;;2.08;0.10;;;;;;;15.52;44.36;99610.12;1651424;84;21147;-54
2021/05/12 12:06:58;;;;;;;0.10;0.10;;;;;;;15.58;44.53;99600.22;1697934;82;21522;-53